Time;durP1;ratioP1;P1;durP2;ratioP2;P2;SDS_P1;SDS_P2;PMS_P1;PMS_P2;Temp;Humidity;BMP_temperature;BMP_pressure;BME280_temperature;BME280_humidity;BME280_pressure;Samples;Min_cycle;Max_cycle;Signal;HPM_P1;HPM_P2
2022/11/07 00:02:23;;;;;;;8.27;4.50;;;10.70;99.90;;;;;;5113488;28;20019;-82
2022/11/07 00:04:48;;;;;;;5.55;4.07;;;10.50;99.90;;;;;;5113520;28;20032;-82
2022/11/07 00:07:14;;;;;;;8.27;4.20;;;10.60;99.90;;;;;;5113194;28;20019;-81
2022/11/07 00:09:40;;;;;;;4.43;3.58;;;10.70;99.90;;;;;;5113308;28;20070;-82
2022/11/07 00:12:05;;;;;;;4.88;3.50;;;10.80;99.90;;;;;;5113241;28;20016;-82
2022/11/07 00:14:31;;;;;;;5.97;3.47;;;10.40;99.90;;;;;;5113425;28;20081;-82
2022/11/07 00:16:57;;;;;;;7.07;3.90;;;10.70;99.90;;;;;;5113234;28;20042;-82
2022/11/07 00:19:23;;;;;;;6.03;3.85;;;10.80;99.90;;;;;;5113285;28;20400;-82
2022/11/07 00:21:49;;;;;;;6.20;3.47;;;10.60;99.90;;;;;;5113283;28;20023;-82
2022/11/07 00:24:18;;;;;;;5.95;4.50;;;10.20;99.90;;;;;;5113491;28;20472;-81
2022/11/07 00:26:45;;;;;;;5.28;4.28;;;10.20;99.90;;;;;;5112903;28;20535;-81
2022/11/07 00:29:13;;;;;;;5.22;4.60;;;10.20;99.90;;;;;;5113017;28;20411;-82
2022/11/07 00:31:38;;;;;;;5.25;4.43;;;10.20;99.90;;;;;;5110182;28;20428;-81
2022/11/07 00:34:04;;;;;;;6.80;4.40;;;10.10;99.90;;;;;;5095443;28;20103;-81
2022/11/07 00:36:30;;;;;;;6.38;4.55;;;10.10;99.90;;;;;;5112702;28;20083;-81
2022/11/07 00:38:56;;;;;;;6.20;4.57;;;10.20;99.90;;;;;;5113239;28;20032;-82
2022/11/07 00:41:22;;;;;;;5.20;4.05;;;10.10;99.90;;;;;;5112539;28;20031;-81
2022/11/07 00:43:47;;;;;;;5.22;4.43;;;10.30;99.90;;;;;;5113032;28;20084;-82
2022/11/07 00:46:15;;;;;;;5.70;4.38;;;10.00;99.90;;;;;;5113214;28;20475;-82
2022/11/07 00:48:41;;;;;;;4.80;3.90;;;10.30;99.90;;;;;;5113070;28;20027;-81
2022/11/07 00:51:10;;;;;;;4.93;4.10;;;10.00;99.90;;;;;;5112721;28;20027;-82
2022/11/07 00:53:37;;;;;;;7.40;4.10;;;10.10;99.90;;;;;;5112757;28;20023;-81
2022/11/07 00:56:04;;;;;;;5.80;4.57;;;9.90;99.90;;;;;;5112279;28;20032;-82
2022/11/07 00:58:30;;;;;;;6.60;5.13;;;9.60;99.90;;;;;;5112704;28;20015;-82
2022/11/07 01:00:57;;;;;;;6.40;5.15;;;9.70;99.90;;;;;;5112927;28;20032;-81
2022/11/07 01:06:07;;;;;;;8.75;5.78;;;9.80;99.90;;;;;;5112904;28;20038;-81
2022/11/07 01:08:33;;;;;;;7.88;5.90;;;9.80;99.90;;;;;;5112848;28;20560;-81
2022/11/07 01:11:02;;;;;;;7.97;5.75;;;9.90;99.90;;;;;;5112107;28;20024;-82
2022/11/07 01:13:28;;;;;;;9.32;6.18;;;10.20;99.90;;;;;;5112581;28;20031;-81
2022/11/07 01:15:53;;;;;;;6.70;5.60;;;9.80;99.90;;;;;;5112614;28;20040;-81
2022/11/07 01:18:19;;;;;;;8.00;5.47;;;9.70;99.90;;;;;;5114689;28;20027;-82
2022/11/07 01:20:45;;;;;;;7.47;5.35;;;9.60;99.90;;;;;;5117013;28;20177;-81
2022/11/07 01:23:11;;;;;;;8.93;5.40;;;9.60;99.90;;;;;;5116463;28;20031;-82
2022/11/07 01:25:37;;;;;;;7.15;5.40;;;9.40;99.90;;;;;;5116375;28;20028;-82
2022/11/07 01:28:04;;;;;;;7.72;6.00;;;9.30;99.90;;;;;;5098424;28;20059;-81
2022/11/07 01:30:29;;;;;;;8.40;6.03;;;9.20;99.90;;;;;;5116603;28;20073;-82
2022/11/07 01:32:55;;;;;;;8.63;5.88;;;9.10;99.90;;;;;;5102356;28;20434;-81
2022/11/07 01:35:20;;;;;;;7.82;5.65;;;9.20;99.90;;;;;;5109795;28;20047;-82
2022/11/07 01:37:46;;;;;;;7.20;5.72;;;9.20;99.90;;;;;;5116481;28;20066;-81
2022/11/07 01:40:11;;;;;;;8.00;5.57;;;9.20;99.90;;;;;;5116238;28;20032;-81
2022/11/07 01:42:37;;;;;;;7.25;5.40;;;9.30;99.90;;;;;;5116591;28;20024;-81
2022/11/07 01:45:03;;;;;;;12.88;7.00;;;9.20;99.90;;;;;;5116291;28;20382;-82
2022/11/07 01:47:35;;;;;;;14.15;6.53;;;9.20;99.90;;;;;;5116255;28;20434;-81
2022/11/07 01:50:02;;;;;;;11.00;6.38;;;9.30;99.90;;;;;;5116305;28;20027;-81
2022/11/07 01:52:33;;;;;;;12.05;6.28;;;9.30;99.90;;;;;;5116182;28;20024;-81
2022/11/07 01:55:23;;;;;;;13.73;5.70;;;9.30;99.90;;;;;;5115745;28;20047;-81
2022/11/07 01:57:53;;;;;;;22.00;8.10;;;9.30;99.90;;;;;;5116072;28;20028;-81
2022/11/07 02:00:21;;;;;;;16.50;6.95;;;9.30;99.90;;;;;;5116213;28;20036;-81
2022/11/07 02:02:50;;;;;;;21.38;8.55;;;9.40;99.90;;;;;;5115919;28;20041;-82
2022/11/07 02:05:39;;;;;;;22.40;8.60;;;9.40;99.90;;;;;;5116130;28;20042;-81
2022/11/07 02:08:07;;;;;;;16.05;7.60;;;9.30;99.90;;;;;;5114751;28;20550;-81
2022/11/07 02:10:34;;;;;;;13.25;6.80;;;9.20;99.90;;;;;;5115794;28;20027;-82
2022/11/07 02:13:01;;;;;;;13.63;6.10;;;9.20;99.90;;;;;;5115725;28;20035;-81
2022/11/07 02:15:27;;;;;;;9.00;4.88;;;9.70;99.90;;;;;;5115619;28;20031;-81
2022/11/07 02:17:54;;;;;;;9.38;5.30;;;9.20;99.90;;;;;;5097968;28;20046;-81
2022/11/07 02:20:19;;;;;;;10.02;5.10;;;9.30;99.90;;;;;;5115608;28;20023;-81
2022/11/07 02:22:54;;;;;;;8.77;5.05;;;9.20;99.90;;;;;;5115230;28;20424;-81
2022/11/07 02:25:20;;;;;;;8.57;5.28;;;9.20;99.90;;;;;;5115504;28;20031;-82
2022/11/07 02:27:50;;;;;;;9.90;5.25;;;9.50;99.90;;;;;;5115745;28;20031;-81
2022/11/07 02:30:22;;;;;;;4.60;4.00;;;9.20;99.90;;;;;;5115132;28;20494;-81
2022/11/07 02:32:48;;;;;;;6.00;4.13;;;8.90;99.90;;;;;;5102129;28;20020;-82
2022/11/07 02:35:37;;;;;;;6.55;4.30;;;8.80;99.90;;;;;;5107719;28;20157;-82
2022/11/07 02:38:17;;;;;;;6.07;3.72;;;8.80;99.90;;;;;;5115298;28;20045;-81
2022/11/07 02:40:48;;;;;;;7.75;3.85;;;8.80;99.90;;;;;;5115641;28;20103;-81
2022/11/07 02:43:17;;;;;;;5.25;3.72;;;9.00;99.90;;;;;;5114971;28;20015;-82
2022/11/07 02:45:45;;;;;;;6.07;3.88;;;8.60;99.90;;;;;;5115229;28;20023;-81
2022/11/07 02:48:10;;;;;;;5.75;3.63;;;8.50;99.90;;;;;;5115148;28;20160;-81
2022/11/07 02:50:36;;;;;;;5.57;3.95;;;8.50;99.90;;;;;;5114928;28;20577;-81
2022/11/07 02:53:01;;;;;;;5.47;3.80;;;8.60;99.90;;;;;;5114799;28;20023;-81
2022/11/07 02:55:27;;;;;;;5.95;3.72;;;8.50;99.90;;;;;;5115331;28;20108;-81
2022/11/07 02:57:53;;;;;;;6.30;4.15;;;8.50;99.90;;;;;;5114834;28;20537;-81
2022/11/07 03:00:18;;;;;;;5.78;3.67;;;8.50;99.90;;;;;;5114725;28;20113;-82
2022/11/07 03:02:45;;;;;;;5.85;4.20;;;8.40;99.90;;;;;;5114940;28;20032;-82
2022/11/07 03:05:13;;;;;;;6.25;3.78;;;8.60;99.90;;;;;;5114588;28;20396;-81
2022/11/07 03:07:40;;;;;;;6.70;4.40;;;8.60;99.90;;;;;;5115063;28;20028;-81
2022/11/07 03:10:06;;;;;;;5.03;4.47;;;8.60;99.90;;;;;;5114961;28;20046;-81
2022/11/07 03:12:32;;;;;;;9.00;5.57;;;8.60;99.90;;;;;;5114315;28;20495;-81
2022/11/07 03:14:57;;;;;;;7.82;5.55;;;8.60;99.90;;;;;;5114615;28;20068;-82
2022/11/07 03:17:23;;;;;;;7.20;4.57;;;8.60;99.90;;;;;;5114774;28;20043;-81
2022/11/07 03:19:48;;;;;;;7.18;4.95;;;8.60;99.90;;;;;;5114492;28;20031;-81
2022/11/07 03:22:14;;;;;;;7.70;4.03;;;8.60;99.90;;;;;;5096185;28;20028;-81
2022/11/07 03:24:39;;;;;;;4.45;3.30;;;9.10;99.90;;;;;;5114301;28;20125;-82
2022/11/07 03:27:05;;;;;;;4.03;3.55;;;8.70;99.90;;;;;;5114542;28;20103;-81
2022/11/07 03:29:31;;;;;;;6.70;3.70;;;8.70;99.90;;;;;;5114516;28;20506;-81
2022/11/07 03:31:56;;;;;;;4.45;3.28;;;8.70;99.90;;;;;;5108322;28;20085;-81
2022/11/07 03:34:22;;;;;;;4.70;3.22;;;8.60;99.90;;;;;;5093402;28;20656;-81
2022/11/07 03:36:47;;;;;;;4.18;2.92;;;8.60;99.90;;;;;;5093569;28;20035;-81
2022/11/07 03:39:13;;;;;;;4.75;3.15;;;8.60;99.90;;;;;;5093668;28;20024;-81
2022/11/07 03:41:38;;;;;;;5.10;3.22;;;8.40;99.90;;;;;;5093120;28;20214;-81
2022/11/07 03:44:04;;;;;;;4.78;3.47;;;8.40;99.90;;;;;;5093984;28;20023;-81
2022/11/07 03:46:30;;;;;;;5.35;3.60;;;8.40;99.90;;;;;;5093589;28;20099;-81
2022/11/07 03:48:56;;;;;;;6.57;4.00;;;8.40;99.90;;;;;;5093192;28;20515;-81
2022/11/07 03:51:21;;;;;;;5.30;3.67;;;8.10;99.90;;;;;;5093444;28;20028;-81
2022/11/07 03:53:47;;;;;;;5.32;3.90;;;8.20;99.90;;;;;;5093464;28;20024;-81
2022/11/07 03:56:13;;;;;;;4.82;3.22;;;7.80;99.90;;;;;;5093301;28;20065;-82
2022/11/07 03:58:38;;;;;;;5.38;3.20;;;7.80;99.90;;;;;;5093281;28;20028;-81
2022/11/07 04:01:05;;;;;;;5.10;3.63;;;7.90;99.90;;;;;;5093739;28;20028;-81
2022/11/07 04:03:31;;;;;;;4.45;3.83;;;7.90;99.90;;;;;;5092840;28;20369;-81
2022/11/07 04:05:57;;;;;;;6.60;3.75;;;7.90;99.90;;;;;;5093203;28;20422;-81
2022/11/07 04:08:23;;;;;;;4.00;3.60;;;8.00;99.90;;;;;;5093060;28;20020;-81
2022/11/07 04:10:49;;;;;;;5.20;3.70;;;8.20;99.90;;;;;;5092996;28;20036;-81
2022/11/07 04:18:44;;;;;;;5.65;3.80;;;8.00;99.90;;;;;;5093012;28;20525;-81
2022/11/07 04:21:09;;;;;;;4.13;3.63;;;8.10;99.90;;;;;;5093170;28;20477;-81
2022/11/07 04:23:35;;;;;;;5.65;3.92;;;8.00;99.90;;;;;;5092929;28;20020;-81
2022/11/07 04:28:44;;;;;;;5.28;3.60;;;7.80;99.90;;;;;;5093172;28;20030;-82
2022/11/07 04:31:10;;;;;;;4.35;3.40;;;8.30;99.90;;;;;;5092789;28;20406;-81
2022/11/07 04:33:35;;;;;;;5.80;3.53;;;8.00;99.90;;;;;;5092364;28;20114;-81
2022/11/07 04:36:01;;;;;;;5.50;3.50;;;8.10;99.90;;;;;;5111892;28;20043;-81
2022/11/07 04:38:27;;;;;;;5.72;3.58;;;8.10;99.90;;;;;;5112921;28;20024;-81
2022/11/07 04:40:54;;;;;;;4.88;3.50;;;8.40;99.90;;;;;;5113157;28;20027;-81
2022/11/07 04:43:20;;;;;;;4.55;3.42;;;8.10;99.90;;;;;;5113227;28;20024;-82
2022/11/07 04:45:45;;;;;;;3.80;3.40;;;8.20;99.90;;;;;;5112974;28;20020;-81
2022/11/07 04:48:11;;;;;;;3.58;2.97;;;8.10;99.90;;;;;;5112556;28;20482;-81
2022/11/07 04:50:37;;;;;;;6.25;2.90;;;8.00;99.90;;;;;;5112787;28;20027;-81
2022/11/07 04:53:03;;;;;;;4.00;3.10;;;8.00;99.90;;;;;;5111883;28;20034;-82
2022/11/07 04:55:29;;;;;;;4.07;3.10;;;7.90;99.90;;;;;;5112672;28;20035;-82
2022/11/07 04:57:55;;;;;;;5.75;3.17;;;8.10;99.90;;;;;;5112702;28;20024;-81
2022/11/07 05:00:21;;;;;;;4.53;3.13;;;7.60;99.90;;;;;;5112651;28;20131;-82
2022/11/07 05:02:47;;;;;;;4.03;3.10;;;7.60;99.90;;;;;;5112318;28;20019;-81
2022/11/07 05:05:13;;;;;;;6.93;3.40;;;7.50;99.90;;;;;;5112664;28;20086;-82
2022/11/07 05:07:38;;;;;;;5.22;3.33;;;7.30;99.90;;;;;;5113048;28;20048;-81
2022/11/07 05:10:06;;;;;;;4.63;3.65;;;7.30;99.90;;;;;;5112700;28;20376;-81
2022/11/07 05:12:31;;;;;;;6.90;3.47;;;7.40;99.90;;;;;;5112469;28;20092;-81
2022/11/07 05:14:58;;;;;;;4.85;3.17;;;7.30;99.90;;;;;;5112679;28;20472;-81
2022/11/07 05:17:24;;;;;;;8.20;3.80;;;7.30;99.90;;;;;;5112036;28;20035;-81
2022/11/07 05:19:50;;;;;;;5.78;3.78;;;7.30;99.90;;;;;;5112530;28;20069;-81
2022/11/07 05:24:59;;;;;;;5.25;3.65;;;7.40;99.90;;;;;;5112718;28;20112;-81
2022/11/07 05:27:25;;;;;;;5.68;3.63;;;7.80;99.90;;;;;;5112394;28;20106;-81
2022/11/07 05:29:51;;;;;;;4.07;3.08;;;7.50;99.90;;;;;;5094276;28;20031;-81
2022/11/07 05:32:17;;;;;;;5.68;3.40;;;7.50;99.90;;;;;;5103389;28;20480;-81
2022/11/07 05:34:42;;;;;;;6.18;3.22;;;7.60;99.90;;;;;;5100575;28;20092;-81
2022/11/07 05:37:09;;;;;;;4.43;3.05;;;8.10;99.90;;;;;;5112168;28;20032;-81
2022/11/07 05:39:35;;;;;;;6.85;3.65;;;7.70;99.90;;;;;;5093986;28;20024;-81
2022/11/07 05:42:02;;;;;;;3.90;3.20;;;7.70;99.90;;;;;;5112413;28;20024;-81
2022/11/07 05:44:28;;;;;;;4.45;3.33;;;7.70;99.90;;;;;;5112337;28;20024;-80
2022/11/07 05:46:55;;;;;;;5.30;3.60;;;7.70;99.90;;;;;;5112135;28;20058;-82
2022/11/07 05:49:21;;;;;;;6.50;3.45;;;7.70;99.90;;;;;;5112267;28;20024;-81
2022/11/07 05:51:46;;;;;;;6.78;3.70;;;8.10;99.90;;;;;;5112077;28;20034;-81
2022/11/07 05:54:12;;;;;;;4.00;3.60;;;7.60;99.90;;;;;;5112350;28;20019;-81
2022/11/07 05:56:37;;;;;;;5.97;3.35;;;7.70;99.90;;;;;;5112166;28;20032;-81
2022/11/07 05:59:04;;;;;;;6.32;3.35;;;7.60;99.90;;;;;;5112078;28;20087;-82
2022/11/07 06:01:29;;;;;;;5.78;3.40;;;7.60;99.90;;;;;;5111954;28;20036;-81
2022/11/07 06:03:55;;;;;;;5.45;3.08;;;7.70;99.90;;;;;;5113309;28;20596;-82
2022/11/07 06:06:21;;;;;;;6.45;3.45;;;7.60;99.90;;;;;;5115785;28;20107;-81
2022/11/07 06:08:46;;;;;;;4.20;3.08;;;7.60;99.90;;;;;;5116295;28;20387;-81
2022/11/07 06:11:12;;;;;;;9.55;3.58;;;7.60;99.90;;;;;;5115839;28;20110;-81
2022/11/07 06:13:37;;;;;;;8.10;3.80;;;7.50;99.90;;;;;;5115443;28;20483;-81
2022/11/07 06:16:04;;;;;;;6.30;4.55;;;7.40;99.90;;;;;;5115746;28;20124;-82
2022/11/07 06:18:30;;;;;;;6.50;4.85;;;7.40;99.90;;;;;;5115566;28;20052;-81
2022/11/07 06:20:55;;;;;;;7.90;4.22;;;7.30;99.90;;;;;;5114915;28;20028;-82
2022/11/07 06:23:21;;;;;;;7.43;4.28;;;7.20;99.90;;;;;;5098421;28;20053;-83
2022/11/07 06:25:49;;;;;;;7.30;4.10;;;7.10;99.90;;;;;;5115520;28;20081;-82
2022/11/07 06:28:14;;;;;;;7.63;4.25;;;7.20;99.90;;;;;;5115135;28;20063;-83
2022/11/07 06:30:41;;;;;;;9.55;4.38;;;7.40;99.90;;;;;;5115657;28;20026;-83
2022/11/07 06:33:10;;;;;;;9.40;4.15;;;7.20;99.90;;;;;;5099750;28;20527;-83
2022/11/07 06:35:36;;;;;;;7.32;4.28;;;7.60;99.90;;;;;;5089680;28;20048;-82
2022/11/07 06:38:04;;;;;;;6.82;4.20;;;7.30;99.90;;;;;;5074583;28;20024;-81
2022/11/07 06:40:30;;;;;;;9.00;4.57;;;7.30;99.90;;;;;;5074906;28;20013;-81
2022/11/07 06:42:55;;;;;;;8.20;4.75;;;7.40;99.90;;;;;;5074167;28;20095;-81
2022/11/07 06:45:21;;;;;;;8.80;5.00;;;7.30;99.90;;;;;;5074578;28;20055;-81
2022/11/07 06:47:47;;;;;;;7.18;4.47;;;7.30;99.90;;;;;;5074289;28;20032;-81
2022/11/07 06:50:12;;;;;;;5.60;3.92;;;7.40;99.90;;;;;;5074450;28;20032;-81
2022/11/07 06:52:38;;;;;;;5.22;4.18;;;7.50;99.90;;;;;;5074263;28;20469;-81
2022/11/07 06:55:04;;;;;;;8.23;3.95;;;7.60;99.90;;;;;;5073473;28;20472;-81
2022/11/07 06:57:29;;;;;;;6.22;4.18;;;7.60;99.90;;;;;;5073494;28;20213;-81
2022/11/07 06:59:55;;;;;;;7.13;4.20;;;7.70;99.90;;;;;;5073613;28;20032;-82
2022/11/07 07:02:20;;;;;;;6.63;4.10;;;8.00;99.90;;;;;;5073966;28;20036;-81
2022/11/07 07:04:47;;;;;;;6.20;4.10;;;7.80;99.90;;;;;;5074160;28;20030;-81
2022/11/07 07:07:13;;;;;;;6.50;4.60;;;7.80;99.90;;;;;;5074190;28;20075;-81
2022/11/07 07:09:39;;;;;;;9.30;4.72;;;8.20;99.90;;;;;;5073945;28;20460;-81
2022/11/07 07:12:04;;;;;;;7.15;5.10;;;7.80;99.90;;;;;;5073312;28;20029;-82
2022/11/07 07:14:30;;;;;;;6.80;4.63;;;8.10;99.90;;;;;;5073611;28;20025;-81
2022/11/07 07:16:58;;;;;;;6.30;4.30;;;8.50;99.90;;;;;;5073087;28;20123;-81
2022/11/07 07:19:23;;;;;;;5.82;3.83;;;9.50;99.90;;;;;;5073973;28;20418;-81
2022/11/07 07:21:49;;;;;;;5.65;4.18;;;10.80;99.90;;;;;;5072154;28;20028;-81
2022/11/07 07:24:15;;;;;;;5.95;3.95;;;10.60;99.90;;;;;;5072378;28;20423;-82
2022/11/07 07:26:41;;;;;;;5.88;3.80;;;10.80;99.90;;;;;;5073419;28;20560;-81
2022/11/07 07:29:06;;;;;;;7.07;3.83;;;10.10;99.90;;;;;;5073902;28;20387;-81
2022/11/07 07:31:32;;;;;;;6.45;4.00;;;9.50;99.90;;;;;;5073502;28;20028;-82
2022/11/07 07:33:58;;;;;;;4.68;3.65;;;9.40;99.90;;;;;;5073206;28;20107;-81
2022/11/07 07:36:24;;;;;;;7.57;3.65;;;9.40;99.90;;;;;;5090412;28;20106;-81
2022/11/07 07:38:50;;;;;;;4.63;3.22;;;9.50;99.90;;;;;;5093851;28;20024;-81
2022/11/07 07:41:17;;;;;;;5.18;3.53;;;11.80;99.90;;;;;;5093414;28;20032;-81
2022/11/07 07:43:43;;;;;;;4.63;3.28;;;13.00;99.90;;;;;;5093590;28;20425;-81
2022/11/07 07:46:14;;;;;;;7.45;3.10;;;13.60;99.90;;;;;;5093843;28;20111;-81
2022/11/07 07:48:39;;;;;;;7.00;3.60;;;12.70;99.90;;;;;;5093506;28;20024;-82
2022/11/07 07:51:05;;;;;;;6.00;3.53;;;12.00;99.90;;;;;;5093617;28;20445;-81
2022/11/07 07:53:31;;;;;;;5.00;3.50;;;12.40;99.90;;;;;;5093466;28;20050;-81
2022/11/07 07:55:58;;;;;;;9.55;4.05;;;13.50;99.90;;;;;;5093352;28;20036;-81
2022/11/07 07:58:25;;;;;;;5.15;3.30;;;13.20;99.90;;;;;;5093188;28;20035;-82
2022/11/07 08:00:52;;;;;;;4.40;2.67;;;16.50;99.90;;;;;;5075054;28;20028;-82
2022/11/07 08:03:18;;;;;;;4.47;2.67;;;20.90;99.90;;;;;;5092985;28;20020;-82
2022/11/07 08:05:44;;;;;;;4.00;2.50;;;23.50;99.90;;;;;;5093217;28;20024;-80
2022/11/07 08:08:09;;;;;;;4.32;2.70;;;25.00;99.90;;;;;;5093556;28;20434;-80
2022/11/07 08:10:35;;;;;;;5.78;2.78;;;25.90;99.90;;;;;;5092828;28;20491;-79
2022/11/07 08:13:01;;;;;;;7.13;2.83;;;26.70;99.90;;;;;;5092886;28;20415;-79
2022/11/07 08:15:26;;;;;;;4.45;2.72;;;27.50;99.90;;;;;;5093116;28;20043;-79
2022/11/07 08:17:52;;;;;;;6.95;3.08;;;27.40;99.90;;;;;;5093006;28;20075;-80
2022/11/07 08:20:26;;;;;;;5.45;3.00;;;28.60;99.90;;;;;;5093006;28;20491;-80
2022/11/07 08:22:59;;;;;;;5.20;3.30;;;28.70;99.90;;;;;;5092837;28;20036;-80
2022/11/07 08:25:25;;;;;;;4.70;3.42;;;29.10;99.90;;;;;;5092392;28;20027;-79
2022/11/07 08:27:52;;;;;;;6.93;3.78;;;29.70;99.90;;;;;;5091172;28;20036;-83
2022/11/07 08:30:18;;;;;;;4.00;3.58;;;29.10;99.90;;;;;;5104530;28;20065;-84
2022/11/07 08:32:44;;;;;;;5.85;3.28;;;27.60;99.90;;;;;;5100676;28;20103;-82
2022/11/07 08:35:09;;;;;;;3.92;2.58;;;27.60;99.90;;;;;;5092850;28;20151;-82
2022/11/07 08:37:35;;;;;;;4.97;2.80;;;27.40;99.90;;;;;;5092502;28;20064;-82
2022/11/07 08:40:00;;;;;;;4.82;3.05;;;28.10;99.90;;;;;;5091811;28;20028;-74
2022/11/07 08:42:26;;;;;;;7.20;3.05;;;29.10;99.90;;;;;;5092109;28;20039;-82
2022/11/07 08:44:52;;;;;;;5.18;3.40;;;29.60;99.90;;;;;;5092488;28;20031;-82
2022/11/07 08:47:17;;;;;;;6.10;3.28;;;28.70;99.90;;;;;;5074585;28;20024;-85
2022/11/07 08:49:43;;;;;;;6.63;3.40;;;29.80;99.90;;;;;;5092272;28;20039;-82
2022/11/07 08:52:08;;;;;;;3.97;3.50;;;28.70;99.90;;;;;;5092667;28;20028;-80
2022/11/07 08:54:34;;;;;;;6.25;3.28;;;28.60;99.90;;;;;;5092434;28;20100;-81
2022/11/07 08:56:59;;;;;;;7.43;3.80;;;26.50;99.90;;;;;;5091936;28;20063;-81
2022/11/07 08:59:25;;;;;;;7.05;3.97;;;28.10;99.90;;;;;;5092390;28;20074;-83
2022/11/07 09:01:51;;;;;;;4.70;3.78;;;29.30;99.90;;;;;;5073881;28;20028;-83
2022/11/07 09:04:16;;;;;;;5.95;3.88;;;27.00;99.90;;;;;;5092207;28;20548;-82
2022/11/07 09:06:42;;;;;;;5.28;3.92;;;28.80;99.90;;;;;;5092308;28;20032;-82
2022/11/07 09:09:08;;;;;;;7.32;4.10;;;27.70;99.90;;;;;;5072876;28;20103;-82
2022/11/07 09:11:34;;;;;;;6.68;3.85;;;28.50;99.90;;;;;;5090091;28;20046;-82
2022/11/07 09:14:00;;;;;;;5.55;4.22;;;28.30;99.90;;;;;;5093771;28;20488;-83
2022/11/07 09:16:25;;;;;;;7.10;4.05;;;26.80;99.90;;;;;;5096547;28;20074;-81
2022/11/07 09:18:51;;;;;;;5.65;4.45;;;29.30;99.90;;;;;;5109467;28;20084;-81
2022/11/07 09:21:17;;;;;;;5.00;3.80;;;30.40;99.90;;;;;;5112210;28;20491;-82
2022/11/07 09:23:43;;;;;;;6.35;4.10;;;30.00;99.90;;;;;;5112095;28;20050;-82
2022/11/07 09:26:09;;;;;;;5.88;4.55;;;30.00;99.90;;;;;;5092732;28;20538;-83
2022/11/07 09:28:35;;;;;;;4.93;3.80;;;31.20;99.90;;;;;;5092084;28;20423;-83
2022/11/07 09:31:02;;;;;;;5.72;3.78;;;31.20;99.90;;;;;;5092197;28;20024;-82
2022/11/07 09:33:28;;;;;;;6.28;4.03;;;31.10;99.90;;;;;;5091122;28;20032;-82
2022/11/07 09:35:58;;;;;;;5.57;4.40;;;32.20;99.90;;;;;;5069718;28;20079;-84
2022/11/07 09:38:24;;;;;;;7.00;4.40;;;33.10;99.90;;;;;;5071544;28;20036;-82
2022/11/07 09:41:14;;;;;;;6.57;4.45;;;34.00;99.90;;;;;;5062530;28;20025;-79
2022/11/07 09:43:54;;;;;;;5.53;4.63;;;34.40;99.90;;;;;;5060682;28;20093;-82
2022/11/07 09:46:56;;;;;;;5.70;4.90;;;35.00;99.90;;;;;;5074185;28;20069;-81
2022/11/07 09:49:37;;;;;;;6.70;4.65;;;35.70;99.90;;;;;;5075435;28;20179;-79
2022/11/07 09:52:26;;;;;;;9.07;4.90;;;35.70;99.90;;;;;;5075008;28;20442;-80
2022/11/07 09:54:57;;;;;;;5.85;5.03;;;35.60;99.90;;;;;;5075017;28;20029;-81
2022/11/07 09:57:25;;;;;;;5.90;4.60;;;35.90;99.90;;;;;;5075465;28;20459;-79
2022/11/07 09:59:57;;;;;;;5.28;4.55;;;36.00;99.90;;;;;;5074947;28;20009;-81
2022/11/07 10:02:29;;;;;;;5.75;4.35;;;36.10;99.90;;;;;;5075497;28;20028;-82
2022/11/07 10:04:57;;;;;;;6.13;4.60;;;35.60;99.90;;;;;;5074798;28;20449;-81
2022/11/07 10:07:34;;;;;;;5.43;4.32;;;36.10;99.90;;;;;;5070471;28;20108;-81
2022/11/07 10:10:09;;;;;;;6.90;4.28;;;36.30;99.90;;;;;;5070841;28;20389;-86
2022/11/07 10:13:00;;;;;;;6.32;4.18;;;36.10;99.90;;;;;;5065032;28;21725;-83
2022/11/07 10:15:37;;;;;;;5.68;4.60;;;37.00;99.90;;;;;;5000872;28;20053;-84
2022/11/07 10:18:21;;;;;;;6.13;4.45;;;38.00;99.90;;;;;;5012733;28;20503;-84
2022/11/07 10:21:04;;;;;;;5.93;4.38;;;38.30;99.90;;;;;;5012150;28;20117;-84
2022/11/07 10:23:48;;;;;;;8.07;5.00;;;38.50;99.90;;;;;;5012632;28;20026;-83
2022/11/07 10:26:19;;;;;;;6.72;4.90;;;38.60;99.90;;;;;;5012684;28;20128;-84
2022/11/07 10:28:54;;;;;;;6.70;4.93;;;38.70;99.90;;;;;;5012446;28;20521;-84
2022/11/07 10:31:19;;;;;;;6.15;4.80;;;38.60;99.90;;;;;;5012477;28;20034;-84
2022/11/07 10:33:50;;;;;;;6.07;5.10;;;38.20;99.90;;;;;;5012718;28;20042;-82
2022/11/07 10:36:20;;;;;;;9.35;4.93;;;38.40;99.90;;;;;;4996486;28;20137;-82
2022/11/07 10:38:46;;;;;;;6.20;4.68;;;38.60;99.90;;;;;;4988053;28;20545;-83
2022/11/07 10:41:18;;;;;;;6.60;4.63;;;38.90;99.90;;;;;;4976165;28;20031;-83
2022/11/07 10:43:48;;;;;;;6.50;4.82;;;38.80;99.90;;;;;;4973920;28;20084;-83
2022/11/07 10:46:38;;;;;;;6.50;4.97;;;38.30;99.90;;;;;;4973873;28;20054;-83
2022/11/07 10:49:29;;;;;;;5.60;4.20;;;38.40;99.90;;;;;;4974408;28;20066;-83
2022/11/07 10:52:17;;;;;;;5.13;4.50;;;38.10;99.90;;;;;;4995766;28;20032;-83
2022/11/07 10:54:43;;;;;;;5.22;4.60;;;38.40;99.90;;;;;;5064351;28;20055;-83
2022/11/07 10:57:15;;;;;;;5.50;4.28;;;38.60;99.90;;;;;;5058401;28;20603;-83
2022/11/07 10:59:53;;;;;;;6.70;4.70;;;39.00;99.90;;;;;;5054570;28;20092;-83
2022/11/07 11:02:29;;;;;;;6.20;4.28;;;39.40;99.90;;;;;;5060222;28;20481;-83
2022/11/07 11:05:01;;;;;;;5.40;4.10;;;38.70;99.90;;;;;;5074526;28;20433;-84
2022/11/07 11:07:38;;;;;;;4.18;3.78;;;39.20;99.90;;;;;;5074253;28;20516;-86
2022/11/07 11:10:17;;;;;;;4.28;3.63;;;38.40;99.90;;;;;;5074776;28;20052;-86
2022/11/07 11:12:48;;;;;;;4.10;3.70;;;38.10;99.90;;;;;;5060971;28;20036;-86
2022/11/07 11:15:22;;;;;;;8.65;3.45;;;37.80;99.90;;;;;;5055613;28;20558;-80
2022/11/07 11:18:04;;;;;;;4.47;3.45;;;38.10;99.90;;;;;;5073934;28;20403;-86
2022/11/07 11:20:41;;;;;;;4.15;2.90;;;38.10;99.90;;;;;;5068058;28;20041;-85
2022/11/07 11:23:20;;;;;;;4.45;3.17;;;38.70;99.90;;;;;;5073202;28;20021;-87
2022/11/07 11:25:48;;;;;;;5.15;3.33;;;38.70;99.90;;;;;;5056556;28;20100;-81
2022/11/07 11:28:46;;;;;;;3.55;2.90;;;38.50;99.90;;;;;;5057902;28;20056;-81
2022/11/07 11:31:25;;;;;;;3.88;3.05;;;38.70;99.90;;;;;;5011834;28;20045;-82
2022/11/07 11:33:57;;;;;;;4.05;2.75;;;39.00;99.90;;;;;;5006928;28;20030;-81
2022/11/07 11:36:28;;;;;;;3.20;2.80;;;38.70;99.90;;;;;;5028744;28;20054;-81
2022/11/07 11:38:53;;;;;;;4.22;2.70;;;38.80;99.90;;;;;;5031150;28;20025;-88
2022/11/07 11:41:43;;;;;;;3.78;2.72;;;38.80;99.90;;;;;;5031024;28;20103;-87
2022/11/07 11:44:38;;;;;;;4.22;2.50;;;39.00;99.90;;;;;;5030965;28;20056;-84
2022/11/07 11:47:32;;;;;;;2.60;2.30;;;38.70;99.90;;;;;;5031171;28;20388;-85
2022/11/07 11:50:03;;;;;;;4.72;2.55;;;38.50;99.90;;;;;;5030213;28;20034;-84
2022/11/07 11:52:30;;;;;;;3.95;2.80;;;38.10;99.90;;;;;;5018322;28;20442;-84
2022/11/07 11:54:57;;;;;;;3.00;2.22;;;37.90;99.90;;;;;;5030201;28;20532;-83
2022/11/07 11:57:34;;;;;;;3.10;2.53;;;38.30;99.90;;;;;;5030875;28;20042;-83
2022/11/07 12:00:09;;;;;;;2.63;2.33;;;38.40;99.90;;;;;;5031210;28;20040;-83
2022/11/07 12:02:40;;;;;;;2.85;2.42;;;38.10;99.90;;;;;;5030443;28;20061;-82
2022/11/07 12:05:30;;;;;;;3.08;2.28;;;38.00;99.90;;;;;;5031038;28;20035;-83
2022/11/07 12:08:33;;;;;;;3.30;2.17;;;37.60;99.90;;;;;;5041225;28;20417;-83
2022/11/07 12:11:19;;;;;;;3.72;2.50;;;37.80;99.90;;;;;;5052805;28;20074;-83
2022/11/07 12:14:02;;;;;;;3.28;2.28;;;37.20;99.90;;;;;;5053112;28;20078;-83
2022/11/07 12:16:48;;;;;;;2.88;2.00;;;36.60;99.90;;;;;;5054366;28;20032;-82
2022/11/07 12:19:26;;;;;;;2.88;2.15;;;34.80;99.90;;;;;;5072948;28;20031;-83
2022/11/07 12:22:03;;;;;;;2.60;1.92;;;35.90;99.90;;;;;;5072824;28;20036;-83
2022/11/07 12:24:40;;;;;;;3.25;2.00;;;37.00;99.90;;;;;;5072636;28;20028;-83
2022/11/07 12:27:21;;;;;;;4.03;1.95;;;37.40;99.90;;;;;;5072512;28;20043;-83
2022/11/07 12:30:19;;;;;;;2.72;1.80;;;37.40;99.90;;;;;;5072415;28;20435;-83
2022/11/07 12:32:57;;;;;;;2.97;1.80;;;36.00;99.90;;;;;;5072058;28;20017;-82
2022/11/07 12:35:51;;;;;;;2.60;1.83;;;34.60;99.90;;;;;;5059655;28;20445;-82
2022/11/07 12:38:44;;;;;;;3.75;2.00;;;35.30;99.90;;;;;;5072504;28;20021;-83
2022/11/07 12:41:30;;;;;;;2.83;1.90;;;36.30;99.90;;;;;;5072829;28;20146;-82
2022/11/07 12:44:34;;;;;;;2.25;1.88;;;36.10;99.90;;;;;;5072277;28;20032;-83
2022/11/07 12:47:07;;;;;;;3.65;1.80;;;36.20;99.90;;;;;;5072924;28;20028;-82
2022/11/07 12:50:11;;;;;;;2.42;1.90;;;36.20;99.90;;;;;;5072537;28;20107;-82
2022/11/07 12:52:55;;;;;;;2.55;1.98;;;36.90;99.90;;;;;;5030312;28;20458;-83
2022/11/07 12:55:27;;;;;;;2.78;1.98;;;37.00;99.90;;;;;;5029863;28;20236;-83
2022/11/07 12:57:54;;;;;;;3.88;1.77;;;36.10;99.90;;;;;;5030369;28;20143;-83
2022/11/07 13:00:25;;;;;;;3.72;1.98;;;35.60;99.90;;;;;;5029991;28;20029;-83
2022/11/07 13:03:17;;;;;;;2.80;1.88;;;35.60;99.90;;;;;;5030087;28;20044;-82
2022/11/07 13:06:04;;;;;;;2.72;1.70;;;35.90;99.90;;;;;;5029961;28;20615;-83
2022/11/07 13:08:40;;;;;;;3.10;1.77;;;36.20;99.90;;;;;;5029920;28;20048;-83
2022/11/07 13:11:36;;;;;;;2.17;1.50;;;35.80;99.90;;;;;;5029917;28;20030;-83
2022/11/07 13:14:50;;;;;;;4.28;1.60;;;35.80;99.90;;;;;;5029161;28;20104;-81
2022/11/07 13:17:18;;;;;;;3.10;1.70;;;35.50;99.90;;;;;;5021059;28;20084;-82
2022/11/07 13:19:56;;;;;;;2.25;1.50;;;35.60;99.90;;;;;;5029858;28;20102;-83